Elgood, West Virginia
Current Conditions -  °F | °C
As of 12:52 AM on Sunday 26 Oct 2014 (Local Time) from KBLF Reporting Station
Overcast Overcast  
Wind Chill: 58°   Ceiling: 1200
Heat Index: 58°   Visibility: 10mi
Dew Point: 51°   Wind: 14mph
Humidity: 78%   Direction: 280°W
Pressure: 29.95"   Gusts: NA
Location:  37.3649°N, 81.0293°W
Report Text: KBLF 260452Z AUTO 28012KT 10SM OVC012 14/11 A2995 RMK AO2 SLP119 T01440106 401780033
Loading
Personal Weather Stations






























Interactive Weather Map
Tropical Storm Tracking
New forecast layout! Learn more

10-Day Weather Forecast

Advertisements
Track Severe Weather on mobile